Time;durP1;ratioP1;P1;durP2;ratioP2;P2;SDS_P1;SDS_P2;PMS_P1;PMS_P2;Temp;Humidity;BMP_temperature;BMP_pressure;BME280_temperature;BME280_humidity;BME280_pressure;Samples;Min_cycle;Max_cycle;Signal;HPM_P1;HPM_P2
2023/09/27 00:05:07;;;;;;;10.50;9.63;;;;;;;;;;2615221;46;20523;-80
2023/09/27 00:10:37;;;;;;;10.67;9.77;;;;;;;;;;2614502;54;20387;-80
2023/09/27 00:16:07;;;;;;;12.60;11.50;;;;;;;;;;2612980;54;20403;-79
2023/09/27 00:21:37;;;;;;;11.37;10.30;;;;;;;;;;2612059;54;20369;-80
2023/09/27 00:27:07;;;;;;;11.80;10.60;;;;;;;;;;2612423;54;20419;-79
2023/09/27 00:32:37;;;;;;;11.70;10.70;;;;;;;;;;2612029;54;20861;-79
2023/09/27 00:35:22;;;;;;;16.80;10.40;;;;;;;;;;2612270;54;20403;-78
2023/09/27 00:37:49;;;;;;;10.50;9.63;;;;;;;;;;2612024;54;20431;-78
2023/09/27 00:43:28;;;;;;;10.03;9.13;;;;;;;;;;2613379;54;20434;-81
2023/09/27 00:48:58;;;;;;;11.03;10.13;;;;;;;;;;2615296;54;20366;-80
2023/09/27 00:54:28;;;;;;;11.90;10.70;;;;;;;;;;2614224;54;20395;-78
2023/09/27 00:59:58;;;;;;;9.60;8.80;;;;;;;;;;2614532;54;20387;-78
2023/09/27 01:05:28;;;;;;;11.53;10.43;;;;;;;;;;2613506;54;20424;-79
2023/09/27 01:10:58;;;;;;;12.63;11.53;;;;;;;;;;2612140;39;20634;-79
2023/09/27 01:16:28;;;;;;;11.37;10.37;;;;;;;;;;2610633;54;20386;-79
2023/09/27 01:21:58;;;;;;;13.17;11.30;;;;;;;;;;2612025;54;20375;-79
2023/09/27 01:27:29;;;;;;;11.87;10.50;;;;;;;;;;2613218;54;20399;-79
2023/09/27 01:32:59;;;;;;;12.07;10.90;;;;;;;;;;2612643;54;20447;-79
2023/09/27 01:38:33;;;;;;;10.87;9.80;;;;;;;;;;2612284;54;20478;-80
2023/09/27 01:50:12;;;;;;;11.53;10.37;;;;;;;;;;2612417;54;20548;-79
2023/09/27 01:55:42;;;;;;;10.47;9.40;;;;;;;;;;2612899;54;20386;-79
2023/09/27 02:01:11;;;;;;;9.77;8.97;;;;;;;;;;2612813;39;20938;-78
2023/09/27 02:06:41;;;;;;;11.03;10.13;;;;;;;;;;2612568;54;20394;-79
2023/09/27 02:12:11;;;;;;;12.30;11.20;;;;;;;;;;2613819;39;20807;-79
2023/09/27 02:17:42;;;;;;;12.67;11.43;;;;;;;;;;2613442;54;20980;-79
2023/09/27 02:23:12;;;;;;;11.53;10.40;;;;;;;;;;2613357;54;21023;-80
2023/09/27 02:28:43;;;;;;;11.50;10.30;;;;;;;;;;2611314;54;20383;-81
2023/09/27 02:34:13;;;;;;;11.93;10.87;;;;;;;;;;2612352;39;20923;-79
2023/09/27 02:39:43;;;;;;;12.90;11.43;;;;;;;;;;2612137;54;20370;-79
2023/09/27 02:48:50;;;;;;;12.57;10.40;;;;;;;;;;2612448;54;20968;-79
2023/09/27 02:54:20;;;;;;;12.13;11.07;;;;;;;;;;2612450;54;20428;-79
2023/09/27 02:59:50;;;;;;;11.10;10.20;;;;;;;;;;2613964;39;20454;-79
2023/09/27 03:05:20;;;;;;;14.93;11.70;;;;;;;;;;2612472;54;20471;-79
2023/09/27 03:10:50;;;;;;;11.97;10.80;;;;;;;;;;2611904;54;20370;-79
2023/09/27 03:16:20;;;;;;;13.27;11.97;;;;;;;;;;2612556;54;20422;-79
2023/09/27 03:21:49;;;;;;;15.13;13.73;;;;;;;;;;2612062;54;20411;-79
2023/09/27 03:27:19;;;;;;;12.47;11.17;;;;;;;;;;2612128;54;20945;-79
2023/09/27 03:32:49;;;;;;;12.80;11.50;;;;;;;;;;2613298;54;20451;-79
2023/09/27 03:38:18;;;;;;;13.67;12.37;;;;;;;;;;2611717;54;20391;-79
2023/09/27 03:43:50;;;;;;;14.70;11.47;;;;;;;;;;2612320;54;20365;-79
2023/09/27 03:49:20;;;;;;;12.20;11.00;;;;;;;;;;2611637;54;20471;-78
2023/09/27 03:54:50;;;;;;;12.80;11.57;;;;;;;;;;2612927;54;20407;-79
2023/09/27 04:00:20;;;;;;;12.93;11.73;;;;;;;;;;2612475;54;20447;-80
2023/09/27 04:05:49;;;;;;;13.03;11.40;;;;;;;;;;2614119;54;20359;-80
2023/09/27 04:11:19;;;;;;;12.73;11.43;;;;;;;;;;2612684;54;20394;-79
2023/09/27 04:16:49;;;;;;;13.00;11.70;;;;;;;;;;2611738;54;20403;-79
2023/09/27 04:22:19;;;;;;;12.80;11.40;;;;;;;;;;2612618;54;20418;-80
2023/09/27 04:27:50;;;;;;;12.23;11.10;;;;;;;;;;2612132;54;20493;-80
2023/09/27 04:33:21;;;;;;;12.40;11.20;;;;;;;;;;2612798;54;20446;-80
2023/09/27 04:38:50;;;;;;;14.33;12.40;;;;;;;;;;2612290;54;20936;-80
2023/09/27 04:44:20;;;;;;;12.77;11.53;;;;;;;;;;2610470;54;20414;-80
2023/09/27 04:53:24;;;;;;;12.87;11.57;;;;;;;;;;2611474;54;20427;-80
2023/09/27 04:58:54;;;;;;;14.10;12.60;;;;;;;;;;2611587;54;20430;-80
2023/09/27 05:04:24;;;;;;;12.13;11.00;;;;;;;;;;2610587;54;20411;-78
2023/09/27 05:09:53;;;;;;;11.30;10.33;;;;;;;;;;2611754;54;20879;-79
2023/09/27 05:15:23;;;;;;;13.77;12.33;;;;;;;;;;2614152;39;20746;-78
2023/09/27 05:20:52;;;;;;;15.20;13.70;;;;;;;;;;2613016;39;20752;-78
2023/09/27 05:26:22;;;;;;;14.60;13.00;;;;;;;;;;2611619;54;20415;-78
2023/09/27 05:31:52;;;;;;;14.33;13.03;;;;;;;;;;2614346;54;20394;-78
2023/09/27 05:37:23;;;;;;;14.20;12.90;;;;;;;;;;2613538;54;20426;-79
2023/09/27 05:42:53;;;;;;;19.43;14.60;;;;;;;;;;2613639;54;20393;-78
2023/09/27 05:48:22;;;;;;;15.50;14.00;;;;;;;;;;2614760;54;20411;-78
2023/09/27 05:53:52;;;;;;;22.63;16.60;;;;;;;;;;2614303;54;20964;-78
2023/09/27 05:59:24;;;;;;;23.57;17.90;;;;;;;;;;2614640;54;20366;-78
2023/09/27 06:04:54;;;;;;;21.93;15.37;;;;;;;;;;2614565;54;20401;-77
2023/09/27 06:10:24;;;;;;;23.07;15.23;;;;;;;;;;2614782;54;20387;-77
2023/09/27 06:15:58;;;;;;;26.07;17.40;;;;;;;;;;2614608;54;20474;-78
2023/09/27 06:21:28;;;;;;;18.90;15.90;;;;;;;;;;2615176;39;20826;-78
2023/09/27 06:26:59;;;;;;;16.80;15.10;;;;;;;;;;2614866;54;20424;-78
2023/09/27 06:32:28;;;;;;;19.47;14.83;;;;;;;;;;2612660;54;20957;-78
2023/09/27 06:38:00;;;;;;;15.60;14.10;;;;;;;;;;2612259;54;20387;-79
2023/09/27 06:43:31;;;;;;;16.60;14.97;;;;;;;;;;2615004;54;20395;-78
2023/09/27 06:49:01;;;;;;;16.00;14.80;;;;;;;;;;2614844;54;20415;-79
2023/09/27 06:51:27;;;;;;;16.70;15.40;;;;;;;;;;2613238;54;20579;-79
2023/09/27 06:53:53;;;;;;;16.30;15.10;;;;;;;;;;2613540;39;20863;-80
2023/09/27 06:59:23;;;;;;;16.80;15.37;;;;;;;;;;2613360;54;20390;-78
2023/09/27 07:04:54;;;;;;;15.87;14.47;;;;;;;;;;2612793;54;20439;-78
2023/09/27 07:10:24;;;;;;;16.17;14.87;;;;;;;;;;2615061;54;20925;-79
2023/09/27 07:15:54;;;;;;;15.73;14.40;;;;;;;;;;2612867;54;20416;-78
2023/09/27 07:21:24;;;;;;;15.83;14.60;;;;;;;;;;2613081;54;20427;-78
2023/09/27 07:26:54;;;;;;;15.10;13.77;;;;;;;;;;2613786;54;21315;-76
2023/09/27 07:32:24;;;;;;;14.90;13.40;;;;;;;;;;2613279;54;20394;-78
2023/09/27 07:37:54;;;;;;;13.53;12.33;;;;;;;;;;2614577;54;20510;-77
2023/09/27 07:43:24;;;;;;;12.53;11.37;;;;;;;;;;2614405;54;20387;-77
2023/09/27 07:48:54;;;;;;;13.70;12.60;;;;;;;;;;2614084;54;20965;-77
2023/09/27 07:54:24;;;;;;;14.57;13.57;;;;;;;;;;2612918;54;20407;-78
2023/09/27 07:59:54;;;;;;;15.87;14.60;;;;;;;;;;2614725;39;20777;-78
2023/09/27 08:05:25;;;;;;;14.60;13.60;;;;;;;;;;2614281;54;20992;-78
2023/09/27 08:10:55;;;;;;;15.30;14.00;;;;;;;;;;2614093;39;20696;-78
2023/09/27 08:16:26;;;;;;;14.90;14.00;;;;;;;;;;2613063;54;20537;-78
2023/09/27 08:21:56;;;;;;;13.70;12.90;;;;;;;;;;2614735;54;20439;-77
2023/09/27 08:27:26;;;;;;;16.73;15.37;;;;;;;;;;2613343;54;20357;-78
2023/09/27 08:32:56;;;;;;;14.57;13.77;;;;;;;;;;2614214;54;20954;-79
2023/09/27 08:38:25;;;;;;;14.10;13.40;;;;;;;;;;2608527;54;20403;-80
2023/09/27 08:43:57;;;;;;;14.40;13.40;;;;;;;;;;2610611;54;20443;-78
2023/09/27 08:55:35;;;;;;;14.60;13.57;;;;;;;;;;2613579;54;20416;-77
2023/09/27 09:01:09;;;;;;;14.60;13.60;;;;;;;;;;2611928;54;20948;-78
2023/09/27 09:06:40;;;;;;;14.87;13.90;;;;;;;;;;2613285;54;20382;-79
2023/09/27 09:12:11;;;;;;;14.43;13.43;;;;;;;;;;2612835;54;20384;-78
2023/09/27 09:17:47;;;;;;;18.00;14.67;;;;;;;;;;2612510;54;20387;-79
2023/09/27 09:23:33;;;;;;;14.27;13.37;;;;;;;;;;2613080;54;20402;-79
2023/09/27 09:29:03;;;;;;;13.83;12.63;;;;;;;;;;2612670;54;20406;-79
2023/09/27 09:34:40;;;;;;;15.17;14.27;;;;;;;;;;2615674;54;20379;-79
2023/09/27 09:40:14;;;;;;;14.33;13.53;;;;;;;;;;2614115;54;20391;-79
2023/09/27 09:45:44;;;;;;;14.97;13.80;;;;;;;;;;2649022;36;20601;-78
2023/09/27 09:51:14;;;;;;;14.70;13.80;;;;;;;;;;2615246;54;20458;-78
2023/09/27 09:56:45;;;;;;;14.27;13.47;;;;;;;;;;2615866;54;20386;-79
2023/09/27 10:02:26;;;;;;;14.93;13.73;;;;;;;;;;2613616;39;20765;-80
2023/09/27 10:07:57;;;;;;;14.33;13.47;;;;;;;;;;2612328;54;20422;-80
2023/09/27 10:13:27;;;;;;;15.07;14.27;;;;;;;;;;2612262;39;20819;-80
2023/09/27 10:18:57;;;;;;;14.33;13.53;;;;;;;;;;2611282;54;20387;-79
2023/09/27 10:24:27;;;;;;;14.20;13.40;;;;;;;;;;2610639;54;20961;-79
2023/09/27 10:29:57;;;;;;;14.30;13.20;;;;;;;;;;2613412;54;20958;-79
2023/09/27 10:35:27;;;;;;;14.13;13.23;;;;;;;;;;2612017;54;20479;-79
2023/09/27 10:40:57;;;;;;;14.10;13.43;;;;;;;;;;2607052;54;20422;-79
2023/09/27 10:46:27;;;;;;;14.80;14.00;;;;;;;;;;2614179;54;20415;-80
2023/09/27 10:48:59;;;;;;;13.80;13.10;;;;;;;;;;2614387;54;20430;-79
2023/09/27 10:51:26;;;;;;;14.40;13.53;;;;;;;;;;2613388;39;20830;-79
2023/09/27 10:56:56;;;;;;;13.73;13.03;;;;;;;;;;2613516;54;20399;-78
2023/09/27 11:02:30;;;;;;;13.43;12.77;;;;;;;;;;2609454;39;20781;-77
2023/09/27 11:08:00;;;;;;;14.57;13.77;;;;;;;;;;2608829;39;20778;-77
2023/09/27 11:13:30;;;;;;;15.30;14.53;;;;;;;;;;2609550;54;20390;-78
2023/09/27 11:19:00;;;;;;;13.23;12.63;;;;;;;;;;2610677;54;20386;-78
2023/09/27 11:24:38;;;;;;;14.50;13.70;;;;;;;;;;2611644;39;20778;-78
2023/09/27 11:30:09;;;;;;;13.77;13.10;;;;;;;;;;2610833;54;20411;-78
2023/09/27 11:41:35;;;;;;;14.30;13.63;;;;;;;;;;2611097;54;20933;-78
2023/09/27 11:47:06;;;;;;;13.70;13.10;;;;;;;;;;2611024;54;20419;-78
2023/09/27 11:52:36;;;;;;;14.33;13.57;;;;;;;;;;2611397;54;20386;-78
2023/09/27 11:58:05;;;;;;;13.40;12.80;;;;;;;;;;2610294;54;20415;-79
2023/09/27 12:03:35;;;;;;;14.23;13.53;;;;;;;;;;2613291;54;20387;-79
2023/09/27 12:09:05;;;;;;;14.83;14.03;;;;;;;;;;2614382;54;20391;-79
2023/09/27 12:14:35;;;;;;;14.57;13.87;;;;;;;;;;2613857;54;20374;-79
2023/09/27 12:20:06;;;;;;;15.43;14.60;;;;;;;;;;2614120;54;20389;-78
2023/09/27 12:25:36;;;;;;;15.07;14.37;;;;;;;;;;2612892;54;20411;-78
2023/09/27 12:31:06;;;;;;;13.90;13.00;;;;;;;;;;2612939;39;20758;-78
2023/09/27 12:36:36;;;;;;;14.47;13.77;;;;;;;;;;2612737;54;20419;-78
2023/09/27 12:42:06;;;;;;;16.03;14.80;;;;;;;;;;2609914;54;20387;-79
2023/09/27 12:47:36;;;;;;;14.50;13.63;;;;;;;;;;2611060;54;20379;-78
2023/09/27 12:53:06;;;;;;;14.37;13.47;;;;;;;;;;2610166;54;20390;-77
2023/09/27 12:55:51;;;;;;;14.43;13.47;;;;;;;;;;2610555;54;20420;-77
2023/09/27 12:58:17;;;;;;;14.00;13.33;;;;;;;;;;2608906;47;20431;-77
2023/09/27 13:03:47;;;;;;;14.17;13.47;;;;;;;;;;2611037;54;20407;-78
2023/09/27 13:09:17;;;;;;;13.53;12.97;;;;;;;;;;2610569;54;20479;-77
2023/09/27 13:14:47;;;;;;;13.60;12.80;;;;;;;;;;2608635;54;20391;-78
2023/09/27 13:20:17;;;;;;;13.40;12.70;;;;;;;;;;2611892;54;20390;-78
2023/09/27 13:25:54;;;;;;;14.40;13.60;;;;;;;;;;2612132;54;20415;-79
2023/09/27 13:31:24;;;;;;;13.57;12.77;;;;;;;;;;2612775;54;20391;-78
2023/09/27 13:36:54;;;;;;;13.47;12.87;;;;;;;;;;2614830;39;20750;-78
2023/09/27 13:42:23;;;;;;;13.43;12.83;;;;;;;;;;2613546;54;20402;-78
2023/09/27 13:47:53;;;;;;;13.83;13.33;;;;;;;;;;2612033;54;21152;-78
2023/09/27 14:02:53;;;;;;;12.57;12.07;;;;;;;;;;2611605;39;20870;-79
2023/09/27 14:08:22;;;;;;;13.97;13.37;;;;;;;;;;2611460;54;20521;-79
2023/09/27 14:13:52;;;;;;;14.20;13.60;;;;;;;;;;2610981;54;20419;-77
2023/09/27 14:19:21;;;;;;;14.43;13.33;;;;;;;;;;2611708;54;20519;-78
2023/09/27 14:24:50;;;;;;;14.03;13.40;;;;;;;;;;2610756;54;20391;-77
2023/09/27 14:30:19;;;;;;;13.90;13.30;;;;;;;;;;2610986;39;20788;-78
2023/09/27 14:35:49;;;;;;;14.77;13.87;;;;;;;;;;2614149;54;20465;-79
2023/09/27 14:41:20;;;;;;;13.47;12.87;;;;;;;;;;2615750;54;20387;-78
2023/09/27 14:46:50;;;;;;;13.40;12.80;;;;;;;;;;2614675;54;20411;-79
2023/09/27 14:52:20;;;;;;;13.70;13.10;;;;;;;;;;2614391;54;20410;-78
2023/09/27 14:57:49;;;;;;;13.47;12.97;;;;;;;;;;2616844;54;20419;-78
2023/09/27 15:03:19;;;;;;;13.03;12.43;;;;;;;;;;2612075;54;20443;-79
2023/09/27 15:08:49;;;;;;;15.20;14.50;;;;;;;;;;2614004;54;20347;-78
2023/09/27 15:14:19;;;;;;;14.80;13.90;;;;;;;;;;2612230;54;20415;-78
2023/09/27 15:19:49;;;;;;;14.23;13.53;;;;;;;;;;2612158;39;20767;-78
2023/09/27 15:25:19;;;;;;;14.20;13.50;;;;;;;;;;2612711;54;20704;-78
2023/09/27 15:30:49;;;;;;;13.77;12.40;;;;;;;;;;2611861;54;20423;-77
2023/09/27 15:36:19;;;;;;;13.30;12.50;;;;;;;;;;2614153;54;20432;-78
2023/09/27 15:41:48;;;;;;;12.17;11.67;;;;;;;;;;2611677;54;20387;-78
2023/09/27 15:47:19;;;;;;;13.63;12.87;;;;;;;;;;2614111;54;20379;-77
2023/09/27 15:58:56;;;;;;;13.90;13.30;;;;;;;;;;2614026;54;20374;-78
2023/09/27 16:04:25;;;;;;;14.40;13.70;;;;;;;;;;2613669;54;20913;-78
2023/09/27 16:09:55;;;;;;;14.40;13.70;;;;;;;;;;2615118;54;20937;-79
2023/09/27 16:15:25;;;;;;;14.50;13.80;;;;;;;;;;2614751;54;20491;-77
2023/09/27 16:20:56;;;;;;;14.97;14.23;;;;;;;;;;2614767;54;20415;-78
2023/09/27 16:26:25;;;;;;;14.23;13.53;;;;;;;;;;2615462;54;20390;-77
2023/09/27 16:31:55;;;;;;;15.43;14.60;;;;;;;;;;2614685;54;20414;-78
2023/09/27 16:37:25;;;;;;;13.87;13.27;;;;;;;;;;2616018;54;20913;-78
2023/09/27 16:42:55;;;;;;;15.80;14.80;;;;;;;;;;2615375;54;20391;-79
2023/09/27 16:48:25;;;;;;;15.50;14.70;;;;;;;;;;2615935;54;20391;-77
2023/09/27 17:00:05;;;;;;;17.23;15.57;;;;;;;;;;2615093;54;20411;-78
2023/09/27 17:05:36;;;;;;;39.03;17.93;;;;;;;;;;2616243;54;20403;-79
2023/09/27 17:11:07;;;;;;;19.13;12.17;;;;;;;;;;2614586;54;20425;-82
2023/09/27 17:16:37;;;;;;;14.17;12.33;;;;;;;;;;2614591;54;20391;-82
2023/09/27 17:22:07;;;;;;;13.50;12.43;;;;;;;;;;2614587;54;20431;-78
2023/09/27 17:27:37;;;;;;;13.77;12.60;;;;;;;;;;2614227;54;20386;-78
2023/09/27 17:33:06;;;;;;;12.57;11.77;;;;;;;;;;2614325;54;20390;-78
2023/09/27 17:38:36;;;;;;;14.10;12.70;;;;;;;;;;2614814;54;20390;-79
2023/09/27 17:44:06;;;;;;;17.27;15.57;;;;;;;;;;2614224;54;20398;-79
2023/09/27 17:49:36;;;;;;;11.53;10.80;;;;;;;;;;2614523;54;20479;-80
2023/09/27 17:58:43;;;;;;;12.57;11.70;;;;;;;;;;2614618;54;20937;-80
2023/09/27 18:04:13;;;;;;;12.80;11.50;;;;;;;;;;2614131;54;20447;-80
2023/09/27 18:09:43;;;;;;;12.80;11.80;;;;;;;;;;2615312;54;20379;-80
2023/09/27 18:15:13;;;;;;;12.30;11.20;;;;;;;;;;2615190;54;20383;-79
2023/09/27 18:20:43;;;;;;;12.43;11.53;;;;;;;;;;2616404;54;20363;-79
2023/09/27 18:26:13;;;;;;;13.10;11.90;;;;;;;;;;2615121;54;20402;-79
2023/09/27 18:31:42;;;;;;;12.27;11.20;;;;;;;;;;2615585;54;20387;-79
2023/09/27 18:37:13;;;;;;;12.90;11.93;;;;;;;;;;2615993;54;20399;-79
2023/09/27 18:42:43;;;;;;;13.70;12.60;;;;;;;;;;2612057;54;20507;-79
2023/09/27 18:48:18;;;;;;;13.17;12.07;;;;;;;;;;2615733;54;20484;-79
2023/09/27 18:53:49;;;;;;;12.10;11.17;;;;;;;;;;2615717;39;20982;-79
2023/09/27 18:59:19;;;;;;;11.87;10.97;;;;;;;;;;2615853;54;20467;-79
2023/09/27 19:04:49;;;;;;;12.13;11.20;;;;;;;;;;2616181;54;20398;-78
2023/09/27 19:10:18;;;;;;;12.70;11.70;;;;;;;;;;2615070;54;20386;-79
2023/09/27 19:15:48;;;;;;;12.07;11.17;;;;;;;;;;2615538;54;20391;-79
2023/09/27 19:21:18;;;;;;;13.17;11.63;;;;;;;;;;2615525;54;20499;-79
2023/09/27 19:26:47;;;;;;;11.80;10.70;;;;;;;;;;2614703;46;20399;-80
2023/09/27 19:32:18;;;;;;;12.00;10.90;;;;;;;;;;2615649;54;20404;-79
2023/09/27 19:37:47;;;;;;;11.33;10.43;;;;;;;;;;2616100;54;20395;-79
2023/09/27 19:43:18;;;;;;;11.43;10.63;;;;;;;;;;2615473;54;20447;-79
2023/09/27 19:48:48;;;;;;;12.10;10.90;;;;;;;;;;2615029;54;20395;-80
2023/09/27 19:54:18;;;;;;;12.50;11.70;;;;;;;;;;2618208;39;20823;-80
2023/09/27 20:03:29;;;;;;;12.20;11.30;;;;;;;;;;2616826;39;20845;-79
2023/09/27 20:08:59;;;;;;;11.80;11.10;;;;;;;;;;2616735;54;20436;-79
2023/09/27 20:14:28;;;;;;;12.87;11.97;;;;;;;;;;2616124;54;20494;-79
2023/09/27 20:19:59;;;;;;;12.70;11.80;;;;;;;;;;2616613;54;20427;-81
2023/09/27 20:25:29;;;;;;;12.57;11.77;;;;;;;;;;2615216;54;20390;-80
2023/09/27 20:30:59;;;;;;;12.63;11.90;;;;;;;;;;2616302;54;20500;-81
2023/09/27 20:36:29;;;;;;;11.70;11.10;;;;;;;;;;2615623;54;20418;-79
2023/09/27 20:41:58;;;;;;;11.87;11.17;;;;;;;;;;2615906;54;20423;-82
2023/09/27 20:47:28;;;;;;;13.57;12.20;;;;;;;;;;2615070;54;20408;-82
2023/09/27 20:52:58;;;;;;;12.37;11.43;;;;;;;;;;2616041;54;20430;-80
2023/09/27 20:58:28;;;;;;;12.27;11.57;;;;;;;;;;2615336;54;20371;-79
2023/09/27 21:03:59;;;;;;;11.60;10.90;;;;;;;;;;2616300;54;20427;-79
2023/09/27 21:09:29;;;;;;;13.70;12.70;;;;;;;;;;2616358;54;21172;-79
2023/09/27 21:15:00;;;;;;;12.67;11.77;;;;;;;;;;2616028;54;20391;-82
2023/09/27 21:20:30;;;;;;;12.63;11.93;;;;;;;;;;2616123;54;20395;-80
2023/09/27 21:26:00;;;;;;;12.70;11.93;;;;;;;;;;2616770;54;20350;-80
2023/09/27 21:31:29;;;;;;;12.27;11.57;;;;;;;;;;2615671;54;20382;-81
2023/09/27 21:36:59;;;;;;;12.90;12.10;;;;;;;;;;2614485;54;20720;-80
2023/09/27 21:42:28;;;;;;;12.67;11.77;;;;;;;;;;2615387;54;20390;-78
2023/09/27 21:47:58;;;;;;;12.50;11.80;;;;;;;;;;2612786;54;20937;-80
2023/09/27 21:53:28;;;;;;;13.80;12.90;;;;;;;;;;2614777;54;20399;-80
2023/09/27 21:58:57;;;;;;;13.50;12.47;;;;;;;;;;2615966;54;20989;-79
2023/09/27 22:08:01;;;;;;;13.37;12.27;;;;;;;;;;2616305;54;20960;-80
2023/09/27 22:13:37;;;;;;;12.67;11.97;;;;;;;;;;2614189;54;20446;-80
2023/09/27 22:19:11;;;;;;;12.53;11.83;;;;;;;;;;2615125;54;20447;-80
2023/09/27 22:24:41;;;;;;;13.07;12.37;;;;;;;;;;2616125;54;21031;-79
2023/09/27 22:30:13;;;;;;;12.70;11.90;;;;;;;;;;2614274;46;20409;-79
2023/09/27 22:35:50;;;;;;;12.30;11.70;;;;;;;;;;2613963;54;20406;-79
2023/09/27 22:41:20;;;;;;;13.40;12.60;;;;;;;;;;2613150;54;20949;-78
2023/09/27 22:46:52;;;;;;;12.83;12.07;;;;;;;;;;2611848;54;20374;-79
2023/09/27 22:52:21;;;;;;;12.93;12.23;;;;;;;;;;2611696;54;20416;-79
2023/09/27 22:57:51;;;;;;;13.13;12.43;;;;;;;;;;2614228;39;20818;-79
2023/09/27 23:03:20;;;;;;;13.50;12.70;;;;;;;;;;2615169;39;20939;-77
2023/09/27 23:08:50;;;;;;;13.27;12.47;;;;;;;;;;2613486;54;21125;-79
2023/09/27 23:14:21;;;;;;;13.07;12.37;;;;;;;;;;2612995;54;20375;-78
2023/09/27 23:19:51;;;;;;;13.40;12.23;;;;;;;;;;2614830;54;20394;-77
2023/09/27 23:31:09;;;;;;;12.90;12.20;;;;;;;;;;2612951;54;20480;-78
2023/09/27 23:36:39;;;;;;;12.43;11.83;;;;;;;;;;2616021;54;20945;-79
2023/09/27 23:48:10;;;;;;;12.50;11.90;;;;;;;;;;2614365;54;20379;-80
2023/09/27 23:53:41;;;;;;;12.93;12.13;;;;;;;;;;2612914;54;20845;-80
